TimeAWST,TemperatureF,Dew PointF,Humidity,Sea Level PressureIn,VisibilityMPH,Wind Direction,Wind SpeedMPH,Gust SpeedMPH,PrecipitationIn,Events,Conditions,WindDirDegrees,DateUTC
12:00 AM,58,49,65,29.99,,SSE,2.3,,,,,160,2013-08-25 16:00:00
12:00 AM,57.2,50.0,77,29.98,6.2,SSE,2.3,-,N/A,,Unknown,160,2013-08-25 16:00:00
12:30 AM,59.0,50.0,72,29.98,6.2,SSE,3.5,-,N/A,,Unknown,150,2013-08-25 16:30:00
1:00 AM,59.0,46.4,63,29.98,6.2,SSE,2.3,-,N/A,,Unknown,150,2013-08-25 17:00:00
1:30 AM,55.4,46.4,72,29.98,6.2,Calm,Calm,-,N/A,,Unknown,0,2013-08-25 17:30:00
2:00 AM,57,46,57,29.98,,Calm,Calm,,,,,,2013-08-25 18:00:00
2:00 AM,57.2,46.4,67,29.98,6.2,Calm,Calm,-,N/A,,Unknown,0,2013-08-25 18:00:00
2:30 AM,53.6,46.4,77,29.98,6.2,South,1.2,-,N/A,,Unknown,170,2013-08-25 18:30:00
3:00 AM,57,47,60,29.98,,South,4.6,,,,,190,2013-08-25 19:00:00
3:00 AM,57.2,46.4,67,29.98,6.2,South,4.6,-,N/A,,Unknown,190,2013-08-25 19:00:00
3:30 AM,57.2,46.4,67,29.98,6.2,SSW,3.5,-,N/A,,Unknown,200,2013-08-25 19:30:00
4:00 AM,57.2,48.2,72,29.98,6.2,South,3.5,-,N/A,,Unknown,180,2013-08-25 20:00:00
4:30 AM,55.4,48.2,77,29.98,6.2,South,4.6,-,N/A,,Unknown,170,2013-08-25 20:30:00
5:00 AM,62,47,48,29.99,,South,6.9,,,,,180,2013-08-25 21:00:00
5:00 AM,62.6,46.4,55,29.98,6.2,South,6.9,-,N/A,,Unknown,180,2013-08-25 21:00:00
5:30 AM,53.6,44.6,72,30.01,6.2,North,3.5,-,N/A,,Unknown,350,2013-08-25 21:30:00
6:00 AM,54,46,67,30.02,6,North,3.5,,,,Partly Cloudy,0,2013-08-25 22:00:00
6:00 AM,53.6,46.4,77,30.01,6.2,North,3.5,-,N/A,,Unknown,360,2013-08-25 22:00:00
6:30 AM,60.8,48.2,63,30.01,6.2,North,3.5,-,N/A,,Unknown,360,2013-08-25 22:30:00
7:00 AM,68.0,41.0,37,30.04,6.2,Calm,Calm,-,N/A,,Unknown,0,2013-08-25 23:00:00
7:30 AM,73.4,42.8,33,30.04,6.2,South,3.5,-,N/A,,Unknown,170,2013-08-25 23:30:00
8:00 AM,78,36,13,30.04,,SSE,3.5,,,,,160,2013-08-26 00:00:00
8:00 AM,78.8,35.6,21,30.04,6.2,SSE,3.5,-,N/A,,Unknown,160,2013-08-26 00:00:00
8:30 AM,82.4,26.6,13,30.04,6.2,South,5.8,-,N/A,,Unknown,180,2013-08-26 00:30:00
9:00 AM,83,22,5,30.05,12,SE,6.9,,,,Partly Cloudy,140,2013-08-26 01:00:00
9:00 AM,84.2,23.0,11,30.04,6.2,SE,6.9,-,N/A,,Unknown,140,2013-08-26 01:00:00
9:30 AM,84.2,28.4,13,30.04,6.2,SSE,8.1,-,N/A,,Unknown,150,2013-08-26 01:30:00
10:00 AM,86.0,28.4,12,30.04,6.2,East,6.9,-,N/A,,Unknown,90,2013-08-26 02:00:00
10:30 AM,87.8,30.2,13,30.01,6.2,East,6.9,-,N/A,,Unknown,90,2013-08-26 02:30:00
11:00 AM,91,35,7,30.00,,ENE,10.4,,,,,60,2013-08-26 03:00:00
11:00 AM,91.4,35.6,14,30.01,6.2,ENE,10.4,-,N/A,,Unknown,60,2013-08-26 03:00:00
11:30 AM,89.6,35.6,15,29.98,6.2,ENE,8.1,-,N/A,,Unknown,60,2013-08-26 03:30:00
12:00 PM,91.4,39.2,16,29.95,6.2,ENE,8.1,-,N/A,,Unknown,70,2013-08-26 04:00:00
12:30 PM,91.4,39.2,16,29.95,6.2,NE,5.8,-,N/A,,Unknown,40,2013-08-26 04:30:00
1:00 PM,91.4,37.4,15,29.92,6.2,ESE,6.9,-,N/A,,Unknown,110,2013-08-26 05:00:00
1:30 PM,93.2,37.4,14,29.89,6.2,ENE,8.1,-,N/A,,Unknown,60,2013-08-26 05:30:00
2:00 PM,94,38,7,29.90,,NE,9.2,,,,,50,2013-08-26 06:00:00
2:00 PM,95.0,37.4,13,29.89,6.2,NE,9.2,-,N/A,,Unknown,50,2013-08-26 06:00:00
2:30 PM,93.2,41.0,16,29.89,6.2,NE,4.6,-,N/A,,Unknown,50,2013-08-26 06:30:00
3:00 PM,93,36,7,29.89,,NNE,5.8,,,,,30,2013-08-26 07:00:00
3:00 PM,93.2,35.6,13,29.89,6.2,NNE,5.8,-,N/A,,Unknown,30,2013-08-26 07:00:00
3:30 PM,93.2,35.6,13,29.89,6.2,East,5.8,-,N/A,,Unknown,90,2013-08-26 07:30:00
4:00 PM,93.2,37.4,14,29.89,6.2,ENE,5.8,-,N/A,,Unknown,70,2013-08-26 08:00:00
4:30 PM,91.4,39.2,16,29.89,6.2,NNE,3.5,-,N/A,,Unknown,20,2013-08-26 08:30:00
5:00 PM,91,45,12,29.90,,Calm,Calm,,,,,,2013-08-26 09:00:00
5:00 PM,91.4,44.6,20,29.89,6.2,Calm,Calm,-,N/A,,Unknown,0,2013-08-26 09:00:00
5:29 PM,80.6,50.0,34,29.89,6.2,Calm,Calm,-,N/A,,Unknown,0,2013-08-26 09:29:00
5:30 PM,80.6,53.6,39,29.89,6.2,Calm,Calm,-,N/A,,Unknown,0,2013-08-26 09:30:00
6:00 PM,78,51,27,29.91,,Calm,Calm,,,,,,2013-08-26 10:00:00
6:00 PM,78.8,50.0,36,29.89,6.2,Calm,Calm,-,N/A,,Unknown,0,2013-08-26 10:00:00
6:30 PM,80.6,48.2,32,29.92,6.2,SSE,6.9,-,N/A,,Unknown,150,2013-08-26 10:30:00
7:00 PM,71.6,55.4,57,29.95,6.2,SSE,2.3,-,N/A,,Unknown,150,2013-08-26 11:00:00
7:30 PM,77.0,51.8,41,29.95,6.2,WNW,6.9,-,N/A,,Unknown,290,2013-08-26 11:30:00
8:00 PM,76,53,34,29.96,,WNW,3.5,,,,,300,2013-08-26 12:00:00
8:00 PM,75.2,53.6,47,29.95,6.2,WNW,3.5,-,N/A,,Unknown,300,2013-08-26 12:00:00
8:30 PM,71.6,55.4,57,29.95,6.2,NE,1.2,-,N/A,,Unknown,40,2013-08-26 12:30:00
9:00 PM,71,54,46,29.96,,Calm,Calm,,,,,,2013-08-26 13:00:00
9:00 PM,71.6,55.4,57,29.95,6.2,Calm,Calm,-,N/A,,Unknown,0,2013-08-26 13:00:00
9:30 PM,69.8,55.4,60,29.95,6.2,East,2.3,-,N/A,,Unknown,100,2013-08-26 13:30:00
10:00 PM,68.0,55.4,64,29.95,6.2,East,3.5,-,N/A,,Unknown,80,2013-08-26 14:00:00
10:30 PM,66.2,55.4,68,29.95,6.2,East,3.5,-,N/A,,Unknown,90,2013-08-26 14:30:00
11:00 PM,65,54,59,29.97,,SE,1.2,,,,,130,2013-08-26 15:00:00
11:00 PM,64.4,53.6,68,29.95,6.2,SE,1.2,-,N/A,,Unknown,130,2013-08-26 15:00:00
11:30 PM,64.4,55.4,73,29.98,6.2,Calm,Calm,-,N/A,,Unknown,0,2013-08-26 15:30:00